This is the latest recevied weather packets stored in our database for station/object DG5TS-10. If no packets are shown the sender has not sent any weather packets the latest 10 day(s).
| Time | Temp. | Humidity | Pressure | Rain* | Wind** | Luminosity | Snow |
|---|---|---|---|---|---|---|---|
| 1777749908 | 25° C | 24% | 1015.9 hPa | - | - | - | - |
| 1777749008 | 25° C | 23% | 1015.9 hPa | - | - | - | - |
| 1777748108 | 25.56° C | 23% | 1015.8 hPa | - | - | - | - |
| 1777747208 | 26.11° C | 23% | 1015.8 hPa | - | - | - | - |
| 1777746308 | 26.11° C | 22% | 1015.8 hPa | - | - | - | - |
| 1777745408 | 26.67° C | 22% | 1015.7 hPa | - | - | - | - |
| 1777744507 | 27.78° C | 20% | 1015.8 hPa | - | - | - | - |
| 1777743606 | 28.33° C | 20% | 1015.8 hPa | - | - | - | - |
| 1777742706 | 29.44° C | 19% | 1015.9 hPa | - | - | - | - |
| 1777741806 | 30.56° C | 16% | 1016.1 hPa | - | - | - | - |
| 1777740906 | 33.33° C | 15% | 1016.1 hPa | - | - | - | - |
| 1777740006 | 32.78° C | 15% | 1016.2 hPa | - | - | - | - |
| 1777739106 | 33.33° C | 15% | 1016.4 hPa | - | - | - | - |
| 1777738206 | 34.44° C | 13% | 1016.5 hPa | - | - | - | - |
| 1777737306 | 37.22° C | 11% | 1016.7 hPa | - | - | - | - |
| 1777736406 | 36.67° C | 11% | 1016.8 hPa | - | - | - | - |
| 1777735506 | 37.22° C | 11% | 1017.1 hPa | - | - | - | - |
| 1777734605 | 38.33° C | 10% | 1017.2 hPa | - | - | - | - |
| 1777733705 | 38.33° C | 10% | 1017.4 hPa | - | - | - | - |
| 1777732805 | 40° C | 9% | 1017.6 hPa | - | - | - | - |
| 1777731905 | 40° C | 9% | 1017.6 hPa | - | - | - | - |
| 1777731004 | 40° C | 9% | 1017.7 hPa | - | - | - | - |
| 1777730104 | 38.33° C | 10% | 1017.9 hPa | - | - | - | - |
| 1777729204 | 33.33° C | 13% | 1017.9 hPa | - | - | - | - |
| 1777728304 | 32.22° C | 15% | 1018.1 hPa | - | - | - | - |
* Rain since midnight (hover to see other rain measurements)
** Current wind speed in m/s (hover to see current wind gust speed)